createdAt,value
2019-01-21T05:03:38.859Z,0
2019-01-21T05:07:06.761Z,0
2019-01-21T05:10:34.634Z,0
2019-01-21T05:14:02.528Z,0
2019-01-21T05:17:30.421Z,0
2019-01-21T05:20:58.291Z,0
2019-01-21T05:24:26.197Z,0
2019-01-21T05:27:54.079Z,0
2019-01-21T05:31:22.079Z,0
2019-01-21T05:34:49.955Z,0
2019-01-21T05:38:17.844Z,0
2019-01-21T05:41:45.729Z,0
2019-01-21T05:45:13.610Z,0
2019-01-21T05:48:48.687Z,0
2019-01-21T05:52:12.364Z,0
2019-01-21T05:55:40.890Z,0
2019-01-21T05:59:08.762Z,0
2019-01-21T06:02:36.657Z,0
2019-01-21T06:06:05.520Z,0
2019-01-21T06:09:33.406Z,0
2019-01-21T06:13:01.295Z,0
2019-01-21T06:16:29.176Z,0
2019-01-21T06:19:57.063Z,0
2019-01-21T06:23:24.955Z,0
2019-01-21T06:26:52.834Z,0
2019-01-21T06:30:20.714Z,0
2019-01-21T06:33:48.705Z,0
2019-01-21T06:37:16.578Z,0
2019-01-21T06:40:44.465Z,0
2019-01-21T06:44:12.417Z,0
2019-01-21T06:47:40.290Z,0
2019-01-21T06:51:08.179Z,0
2019-01-21T06:54:36.095Z,0
2019-01-21T06:58:03.970Z,0
2019-01-21T07:01:33.275Z,0
2019-01-21T07:05:00.741Z,0
2019-01-21T07:08:28.632Z,0
2019-01-21T07:11:56.518Z,5.625
2019-01-21T07:15:24.392Z,5.625
2019-01-21T07:18:52.280Z,5.625
2019-01-21T07:22:20.171Z,11.25
2019-01-21T07:25:48.041Z,11.25
2019-01-21T07:29:15.930Z,11.25
2019-01-21T07:32:43.818Z,16.875
2019-01-21T07:36:11.709Z,16.875
2019-01-21T07:39:39.605Z,22.5
2019-01-21T07:43:07.483Z,22.5
2019-01-21T07:46:35.356Z,22.5
2019-01-21T07:50:03.251Z,22.5
2019-01-21T07:53:31.137Z,22.5
2019-01-21T07:56:59.011Z,28.125
2019-01-21T08:00:26.903Z,28.125
2019-01-21T08:03:54.794Z,28.125
2019-01-21T08:07:22.692Z,33.75
2019-01-21T08:10:50.582Z,33.75
2019-01-21T08:14:18.463Z,33.75
2019-01-21T08:17:47.335Z,33.75
2019-01-21T08:21:15.232Z,39.375
2019-01-21T08:24:43.120Z,39.375
2019-01-21T08:28:10.991Z,50.625
2019-01-21T08:31:38.892Z,56.25
2019-01-21T08:35:06.788Z,61.875
2019-01-21T08:38:34.681Z,61.875
2019-01-21T08:42:02.576Z,67.5
2019-01-21T08:45:30.462Z,67.5
2019-01-21T08:48:58.332Z,73.125
2019-01-21T08:52:26.223Z,78.75
2019-01-21T08:55:54.117Z,78.75
2019-01-21T08:59:21.988Z,84.375
2019-01-21T09:02:49.886Z,90
2019-01-21T09:06:17.775Z,95.625
2019-01-21T09:09:45.649Z,101.25
2019-01-21T09:13:13.537Z,95.625
2019-01-21T09:16:41.423Z,95.625
2019-01-21T09:20:13.258Z,106.875
2019-01-21T09:23:41.149Z,118.125
2019-01-21T09:27:10.035Z,135
2019-01-21T09:30:38.244Z,140.625
2019-01-21T09:34:07.111Z,140.625
2019-01-21T09:37:34.997Z,140.625
2019-01-21T09:41:02.883Z,151.875
2019-01-21T09:44:31.753Z,157.5
2019-01-21T09:47:59.635Z,157.5
2019-01-21T09:51:27.526Z,151.875
2019-01-21T09:54:55.394Z,151.875
2019-01-21T09:58:23.281Z,151.875
2019-01-21T10:01:53.264Z,157.5
2019-01-21T10:05:21.134Z,163.125
2019-01-21T10:08:49.024Z,163.125
2019-01-21T10:12:17.025Z,157.5
2019-01-21T10:15:44.903Z,168.75
2019-01-21T10:19:12.787Z,180
2019-01-21T10:22:40.670Z,191.25
2019-01-21T10:26:08.548Z,180
2019-01-21T10:29:36.444Z,168.75
2019-01-21T10:33:04.323Z,151.875
2019-01-21T10:36:32.203Z,146.25
2019-01-21T10:40:00.138Z,140.625
2019-01-21T10:43:27.972Z,123.75
2019-01-21T10:46:55.847Z,140.625
2019-01-21T10:50:23.737Z,135
2019-01-21T10:53:52.616Z,135
2019-01-21T10:57:21.484Z,135
2019-01-21T11:00:49.370Z,140.625
2019-01-21T11:04:17.261Z,123.75
2019-01-21T11:07:45.134Z,112.5
2019-01-21T11:11:13.029Z,118.125
2019-01-21T11:14:40.931Z,95.625
2019-01-21T11:18:08.871Z,112.5
2019-01-21T11:21:36.750Z,73.125
2019-01-21T11:25:04.632Z,50.625
2019-01-21T11:28:32.505Z,22.5
2019-01-21T11:32:00.390Z,22.5
2019-01-21T11:35:28.280Z,28.125
2019-01-21T11:38:56.155Z,28.125
2019-01-21T11:42:24.046Z,28.125
2019-01-21T11:45:51.935Z,33.75
2019-01-21T11:49:19.801Z,50.625
2019-01-21T11:52:47.690Z,56.25
2019-01-21T11:56:15.583Z,61.875
2019-01-21T11:59:43.451Z,56.25
2019-01-21T12:03:11.347Z,50.625
2019-01-21T12:06:39.238Z,39.375
2019-01-21T12:10:07.115Z,45
2019-01-21T12:13:35.001Z,50.625
2019-01-21T12:17:02.892Z,50.625
2019-01-21T12:20:30.781Z,50.625
2019-01-21T12:23:58.652Z,50.625
2019-01-21T12:27:26.551Z,45
2019-01-21T12:30:54.439Z,50.625
2019-01-21T12:34:22.309Z,56.25
2019-01-21T12:37:50.198Z,73.125
2019-01-21T12:41:21.647Z,73.125
2019-01-21T12:44:48.931Z,61.875
2019-01-21T12:48:16.832Z,56.25
2019-01-21T12:51:46.212Z,61.875
2019-01-21T12:55:13.688Z,56.25
2019-01-21T12:58:41.576Z,73.125
2019-01-21T13:02:09.907Z,90
2019-01-21T13:05:37.782Z,101.25
2019-01-21T13:09:05.775Z,90
2019-01-21T13:12:34.476Z,95.625
2019-01-21T13:16:04.170Z,337.5
2019-01-21T13:19:32.161Z,298.125
2019-01-21T13:23:00.048Z,348.75
2019-01-21T13:26:27.966Z,185.625
2019-01-21T13:29:56.655Z,123.75
2019-01-21T13:33:24.556Z,84.375
2019-01-21T13:36:52.433Z,202.5
2019-01-21T13:40:20.329Z,135
2019-01-21T13:43:48.214Z,101.25
2019-01-21T13:47:16.085Z,101.25
2019-01-21T13:50:43.987Z,56.25
2019-01-21T13:54:12.896Z,90
2019-01-21T13:57:41.780Z,118.125
2019-01-21T14:01:09.680Z,84.375
2019-01-21T14:04:38.658Z,78.75
2019-01-21T14:08:06.578Z,61.875
2019-01-21T14:11:34.467Z,56.25
2019-01-21T14:15:03.398Z,45
2019-01-21T14:18:31.294Z,45
2019-01-21T14:21:59.226Z,50.625
2019-01-21T14:25:27.138Z,67.5
2019-01-21T14:28:55.021Z,146.25
2019-01-21T14:32:22.985Z,101.25
2019-01-21T14:35:50.902Z,56.25
2019-01-21T14:39:18.807Z,50.625
2019-01-21T14:42:46.735Z,45
2019-01-21T14:46:14.716Z,28.125
2019-01-21T14:49:42.605Z,22.5
2019-01-21T14:53:10.544Z,22.5
2019-01-21T14:56:38.486Z,16.875
2019-01-21T15:00:06.363Z,16.875
2019-01-21T15:03:34.325Z,11.25
2019-01-21T15:07:02.274Z,11.25
2019-01-21T15:10:30.257Z,11.25
2019-01-21T15:13:58.192Z,11.25
2019-01-21T15:17:26.999Z,5.625
2019-01-21T15:20:58.911Z,5.625
2019-01-21T15:24:26.855Z,5.625
2019-01-21T15:27:54.778Z,0
2019-01-21T15:31:22.659Z,0
2019-01-21T15:34:50.669Z,0
2019-01-21T15:38:19.475Z,0
2019-01-21T15:41:47.368Z,0
2019-01-21T15:45:15.283Z,0
2019-01-21T15:48:43.173Z,0
2019-01-21T15:52:11.043Z,0
2019-01-21T15:55:38.961Z,0
2019-01-21T15:59:06.844Z,0
2019-01-21T16:02:34.735Z,0
2019-01-21T16:06:02.732Z,0
2019-01-21T16:09:30.650Z,0
2019-01-21T16:12:58.548Z,0
2019-01-21T16:16:26.469Z,0
2019-01-21T16:19:54.365Z,0
2019-01-21T16:23:23.981Z,0
2019-01-21T16:26:51.888Z,0
2019-01-21T16:30:20.029Z,0
2019-01-21T16:33:48.948Z,0
2019-01-21T16:37:16.846Z,0
2019-01-21T16:40:45.733Z,0
2019-01-21T16:44:14.642Z,0
2019-01-21T16:47:42.541Z,0
2019-01-21T16:51:10.442Z,0
2019-01-21T16:54:39.338Z,0
2019-01-21T16:58:07.233Z,0
2019-01-21T17:01:35.152Z,0
2019-01-21T17:05:03.144Z,0
2019-01-21T17:08:31.148Z,0
2019-01-21T17:12:00.090Z,0
2019-01-21T17:15:28.100Z,0
2019-01-21T17:18:56.126Z,0
2019-01-21T17:22:24.265Z,0
2019-01-21T17:25:53.315Z,0
2019-01-21T17:29:21.312Z,0
2019-01-21T17:32:49.361Z,0
2019-01-21T17:36:17.693Z,0
2019-01-21T17:39:45.791Z,0
2019-01-21T17:43:15.170Z,0
2019-01-21T17:46:44.439Z,0
2019-01-21T17:50:13.637Z,0
2019-01-21T17:53:44.029Z,0
2019-01-21T17:57:15.342Z,0
2019-01-21T18:00:43.646Z,0
2019-01-21T18:04:11.809Z,0
2019-01-21T18:07:40.857Z,0
2019-01-21T18:11:08.851Z,0
2019-01-21T18:14:37.783Z,0
2019-01-21T18:18:05.725Z,0
2019-01-21T18:21:39.935Z,0
2019-01-21T18:25:04.806Z,0
2019-01-21T18:28:32.817Z,0
2019-01-21T18:32:01.779Z,0
2019-01-21T18:35:29.790Z,0
2019-01-21T18:38:58.977Z,0
2019-01-21T18:42:27.017Z,0
2019-01-21T18:45:56.011Z,0
2019-01-21T18:49:26.268Z,0
2019-01-21T18:52:54.644Z,0
2019-01-21T18:56:23.825Z,0
2019-01-21T18:59:52.140Z,0
2019-01-21T19:03:20.313Z,0
2019-01-21T19:06:48.789Z,0
2019-01-21T19:10:16.935Z,0
2019-01-21T19:13:45.929Z,0
2019-01-21T19:17:14.173Z,0
2019-01-21T19:20:42.309Z,0
2019-01-21T19:24:10.449Z,0
2019-01-21T19:27:38.440Z,0
2019-01-21T19:31:08.319Z,0
2019-01-21T19:34:36.468Z,0
2019-01-21T19:38:04.928Z,0
2019-01-21T19:41:35.223Z,0
2019-01-21T19:45:05.254Z,0
2019-01-21T19:48:35.074Z,0
2019-01-21T19:52:06.760Z,0
2019-01-21T19:55:35.149Z,0
2019-01-21T19:59:04.363Z,0
2019-01-21T20:02:32.720Z,0
2019-01-21T20:06:01.369Z,0
2019-01-21T20:09:29.588Z,0
2019-01-21T20:12:57.898Z,0
2019-01-21T20:16:26.441Z,0
2019-01-21T20:19:54.449Z,0
2019-01-21T20:23:22.381Z,0
2019-01-21T20:26:50.343Z,0
2019-01-21T20:30:18.256Z,0
2019-01-21T20:33:51.935Z,0
2019-01-21T20:37:17.100Z,0
2019-01-21T20:40:45.004Z,0
2019-01-21T20:44:12.918Z,0
2019-01-21T20:47:40.850Z,0
2019-01-21T20:51:08.732Z,0
2019-01-21T20:54:36.680Z,0
2019-01-21T20:58:04.619Z,0
2019-01-21T21:01:32.554Z,0
2019-01-21T21:05:00.489Z,0
2019-01-21T21:08:28.410Z,0
2019-01-21T21:11:56.321Z,0
2019-01-21T21:15:24.270Z,0
2019-01-21T21:18:52.241Z,0
2019-01-21T21:22:23.279Z,0
2019-01-21T21:25:51.313Z,0
2019-01-21T21:29:19.219Z,0
2019-01-21T21:32:48.163Z,0
2019-01-21T21:36:17.094Z,0
2019-01-21T21:39:45.240Z,0
2019-01-21T21:43:13.132Z,0
2019-01-21T21:46:41.018Z,0
2019-01-21T21:50:08.919Z,0
2019-01-21T21:53:36.822Z,0
2019-01-21T21:57:04.718Z,0
2019-01-21T22:00:32.642Z,0
2019-01-21T22:04:00.547Z,0
2019-01-21T22:07:28.426Z,0
2019-01-21T22:10:56.319Z,0
2019-01-21T22:14:24.225Z,0
2019-01-21T22:17:53.088Z,0
2019-01-21T22:21:21.011Z,0
2019-01-21T22:24:50.744Z,0
2019-01-21T22:28:17.834Z,0
2019-01-21T22:31:45.739Z,0
2019-01-21T22:35:13.635Z,0
2019-01-21T22:38:41.535Z,0
2019-01-21T22:42:09.426Z,0
2019-01-21T22:45:37.335Z,0
2019-01-21T22:49:05.238Z,0
2019-01-21T22:52:33.102Z,0
2019-01-21T22:56:02.008Z,0
2019-01-21T22:59:29.917Z,0
